Time;durP1;ratioP1;P1;durP2;ratioP2;P2;SDS_P1;SDS_P2;PMS_P1;PMS_P2;Temp;Humidity;BMP_temperature;BMP_pressure;BME280_temperature;BME280_humidity;BME280_pressure;Samples;Min_cycle;Max_cycle;Signal;HPM_P1;HPM_P2
2021/08/20 00:00:24;;;;;;;1999.90;999.90;;;17.80;99.90;;;;;;5037498;28;20443;-79
2021/08/20 00:02:49;;;;;;;1999.90;999.90;;;17.80;99.90;;;;;;5056881;28;20196;-80
2021/08/20 00:05:15;;;;;;;1999.90;999.90;;;17.70;99.90;;;;;;5059464;28;20179;-79
2021/08/20 00:07:41;;;;;;;1999.90;999.90;;;17.60;99.90;;;;;;5059206;28;20188;-80
2021/08/20 00:10:07;;;;;;;1999.90;999.90;;;17.70;99.90;;;;;;5041480;28;20204;-80
2021/08/20 00:12:33;;;;;;;1999.90;999.90;;;17.60;99.90;;;;;;5041851;28;20625;-80
2021/08/20 00:14:58;;;;;;;1999.90;999.90;;;17.70;99.90;;;;;;5059868;28;20403;-79
2021/08/20 00:17:25;;;;;;;1999.90;999.90;;;17.70;99.90;;;;;;5059691;28;20722;-80
2021/08/20 00:19:51;;;;;;;1999.90;999.90;;;17.80;99.90;;;;;;5059499;28;20627;-80
2021/08/20 00:22:17;;;;;;;1999.90;999.90;;;17.70;99.90;;;;;;5060026;28;20403;-80
2021/08/20 00:24:42;;;;;;;1999.90;999.90;;;17.70;99.90;;;;;;5059348;28;20231;-79
2021/08/20 00:27:08;;;;;;;1999.90;999.90;;;17.70;99.90;;;;;;5059567;28;20419;-80
2021/08/20 00:29:34;;;;;;;1999.90;999.90;;;17.70;99.90;;;;;;5059101;28;20184;-79
2021/08/20 00:32:00;;;;;;;1999.90;999.90;;;17.70;99.90;;;;;;5059180;28;20570;-80
2021/08/20 00:34:26;;;;;;;1999.90;999.90;;;17.70;99.90;;;;;;5059568;28;20407;-80
2021/08/20 00:36:51;;;;;;;1999.90;999.90;;;17.70;99.90;;;;;;5059042;28;20241;-80
2021/08/20 00:39:18;;;;;;;1999.90;999.90;;;17.70;99.90;;;;;;5059091;28;20189;-80
2021/08/20 00:41:43;;;;;;;1999.90;999.90;;;17.70;99.90;;;;;;5059387;28;20161;-79
2021/08/20 00:44:09;;;;;;;1999.90;999.90;;;17.50;99.90;;;;;;5058919;28;20410;-80
2021/08/20 00:46:36;;;;;;;1999.90;999.90;;;17.60;99.90;;;;;;5059417;28;20188;-80
2021/08/20 00:49:02;;;;;;;1999.90;999.90;;;17.70;99.90;;;;;;5059385;28;20506;-80
2021/08/20 00:51:35;;;;;;;1999.90;999.90;;;17.70;99.90;;;;;;5058765;28;20852;-79
2021/08/20 00:54:02;;;;;;;1999.90;999.90;;;17.70;99.90;;;;;;5058747;28;20152;-79
2021/08/20 00:56:28;;;;;;;1999.90;999.90;;;17.70;99.90;;;;;;5057515;28;20762;-78
2021/08/20 00:58:55;;;;;;;1999.90;999.90;;;17.60;99.90;;;;;;5038645;28;20438;-79
2021/08/20 01:01:21;;;;;;;1999.90;999.90;;;17.60;99.90;;;;;;5058489;28;20767;-79
2021/08/20 01:03:46;;;;;;;1999.90;999.90;;;17.60;99.90;;;;;;5057791;28;20403;-79
2021/08/20 01:06:12;;;;;;;1999.90;999.90;;;17.60;99.90;;;;;;5058073;28;20747;-79
2021/08/20 01:08:38;;;;;;;1999.90;999.90;;;17.70;99.90;;;;;;5058040;28;20222;-79
2021/08/20 01:11:10;;;;;;;1999.90;999.90;;;17.80;99.90;;;;;;5057971;28;20175;-79
2021/08/20 01:13:39;;;;;;;1999.90;999.90;;;17.70;99.90;;;;;;5057731;28;20395;-79
2021/08/20 01:16:06;;;;;;;1999.90;999.90;;;17.80;99.90;;;;;;5057122;28;20766;-79
2021/08/20 01:18:36;;;;;;;1999.90;999.90;;;17.70;99.90;;;;;;5058474;28;20431;-79
2021/08/20 01:21:05;;;;;;;1999.90;999.90;;;17.70;99.90;;;;;;5057689;28;20388;-79
2021/08/20 01:23:31;;;;;;;1999.90;999.90;;;17.80;99.90;;;;;;5058239;28;20418;-79
2021/08/20 01:25:58;;;;;;;1999.90;999.90;;;17.70;99.90;;;;;;5058052;28;20771;-79
2021/08/20 01:28:25;;;;;;;1999.90;999.90;;;17.80;99.90;;;;;;5058044;28;20419;-79
2021/08/20 01:30:56;;;;;;;1999.90;999.90;;;17.80;99.90;;;;;;5023385;28;20498;-79
2021/08/20 01:33:22;;;;;;;1999.90;999.90;;;17.60;99.90;;;;;;5058002;28;20378;-79
2021/08/20 01:35:48;;;;;;;1999.90;999.90;;;17.60;99.90;;;;;;5057826;28;20759;-79
2021/08/20 01:38:13;;;;;;;1999.90;999.90;;;17.60;99.90;;;;;;5057282;28;20770;-79
2021/08/20 01:40:42;;;;;;;1999.90;999.90;;;17.70;99.90;;;;;;5039903;28;20172;-79
2021/08/20 01:43:07;;;;;;;1999.90;999.90;;;17.70;99.90;;;;;;5057785;28;20164;-80
2021/08/20 01:45:33;;;;;;;1999.90;999.90;;;17.70;99.90;;;;;;5057659;28;20465;-79
2021/08/20 01:47:59;;;;;;;1999.90;999.90;;;17.70;99.90;;;;;;5057177;28;20668;-79
2021/08/20 01:50:24;;;;;;;1999.90;999.90;;;17.70;99.90;;;;;;5057298;28;20196;-79
2021/08/20 01:52:50;;;;;;;1999.90;999.90;;;17.60;99.90;;;;;;5057436;28;20165;-79
2021/08/20 01:55:16;;;;;;;1999.90;999.90;;;17.70;99.90;;;;;;5057877;28;20204;-78
2021/08/20 01:57:43;;;;;;;1999.90;999.90;;;17.70;99.90;;;;;;5039759;28;20246;-79
2021/08/20 02:00:10;;;;;;;1999.90;999.90;;;17.70;99.90;;;;;;5057743;28;20167;-79
2021/08/20 02:02:35;;;;;;;1999.90;999.90;;;17.70;99.90;;;;;;5057243;28;20404;-79
2021/08/20 02:05:01;;;;;;;1999.90;999.90;;;17.70;99.90;;;;;;5058067;28;20411;-79
2021/08/20 02:07:27;;;;;;;1999.90;999.90;;;17.60;99.90;;;;;;5057831;28;20703;-79
2021/08/20 02:09:53;;;;;;;1999.90;999.90;;;17.60;99.90;;;;;;5057291;28;20687;-80
2021/08/20 02:12:19;;;;;;;1999.90;999.90;;;17.50;99.90;;;;;;5057854;28;20187;-80
2021/08/20 02:14:44;;;;;;;1999.90;999.90;;;17.60;99.90;;;;;;5057997;28;20898;-79
2021/08/20 02:17:10;;;;;;;1999.90;999.90;;;17.60;99.90;;;;;;5057275;28;20274;-80
2021/08/20 02:19:36;;;;;;;1999.90;999.90;;;17.50;99.90;;;;;;5057359;28;20271;-79
2021/08/20 02:22:02;;;;;;;1999.90;999.90;;;17.50;99.90;;;;;;5039904;28;20176;-79
2021/08/20 02:24:28;;;;;;;1999.90;999.90;;;17.40;99.90;;;;;;5057160;28;20172;-79
2021/08/20 02:26:53;;;;;;;1999.90;999.90;;;17.50;99.90;;;;;;5038991;28;20426;-80
2021/08/20 02:29:19;;;;;;;1999.90;999.90;;;17.50;99.90;;;;;;5057463;28;20188;-79
2021/08/20 02:31:45;;;;;;;1999.90;999.90;;;17.60;99.90;;;;;;5057451;28;20211;-79
2021/08/20 02:34:11;;;;;;;1999.90;999.90;;;17.60;99.90;;;;;;5057401;28;20259;-79
2021/08/20 02:36:37;;;;;;;1999.90;999.90;;;17.50;99.90;;;;;;5056636;28;20530;-79
2021/08/20 02:39:03;;;;;;;1999.90;999.90;;;17.40;99.90;;;;;;5056785;28;20176;-79
2021/08/20 02:41:29;;;;;;;1999.90;999.90;;;17.40;99.90;;;;;;5038517;28;20168;-79
2021/08/20 02:43:55;;;;;;;1999.90;999.90;;;17.40;99.90;;;;;;5056549;28;20961;-79
2021/08/20 02:46:21;;;;;;;1999.90;999.90;;;17.40;99.90;;;;;;5056394;28;20408;-79
2021/08/20 02:48:46;;;;;;;1999.90;999.90;;;17.30;99.90;;;;;;5056298;28;20461;-79
2021/08/20 02:51:13;;;;;;;1999.90;999.90;;;17.20;99.90;;;;;;5056262;28;20957;-79
2021/08/20 02:53:40;;;;;;;1999.90;999.90;;;17.30;99.90;;;;;;5056313;28;20239;-79
2021/08/20 02:56:07;;;;;;;1999.90;999.90;;;17.30;99.90;;;;;;5055976;28;20419;-79
2021/08/20 02:58:33;;;;;;;1999.90;999.90;;;17.30;99.90;;;;;;5056257;28;20498;-79
2021/08/20 03:00:58;;;;;;;1999.90;999.90;;;17.30;99.90;;;;;;5056426;28;20395;-79
2021/08/20 03:03:24;;;;;;;1999.90;999.90;;;17.40;99.90;;;;;;5056179;28;20396;-79
2021/08/20 03:05:50;;;;;;;1999.90;999.90;;;17.30;99.90;;;;;;5056339;28;20153;-79
2021/08/20 03:08:15;;;;;;;1999.90;999.90;;;17.30;99.90;;;;;;5056282;28;20580;-79
2021/08/20 03:10:44;;;;;;;1999.90;999.90;;;17.30;99.90;;;;;;5055966;28;20684;-79
2021/08/20 03:13:09;;;;;;;1999.90;999.90;;;17.20;99.90;;;;;;5056064;28;20160;-80
2021/08/20 03:15:35;;;;;;;1999.90;999.90;;;17.20;99.90;;;;;;5056004;28;20430;-79
2021/08/20 03:18:02;;;;;;;1999.90;999.90;;;17.20;99.90;;;;;;5056478;28;20206;-79
2021/08/20 03:20:28;;;;;;;1999.90;999.90;;;17.20;99.90;;;;;;5056569;28;20425;-79
2021/08/20 03:22:54;;;;;;;1999.90;999.90;;;17.10;99.90;;;;;;5055714;28;20498;-79
2021/08/20 03:25:20;;;;;;;1999.90;999.90;;;17.10;99.90;;;;;;5056019;28;20167;-79
2021/08/20 03:27:46;;;;;;;1999.90;999.90;;;17.10;99.90;;;;;;5055992;28;21031;-79
2021/08/20 03:30:11;;;;;;;1999.90;999.90;;;17.10;99.90;;;;;;5055998;28;20439;-79
2021/08/20 03:32:37;;;;;;;1999.90;999.90;;;17.10;99.90;;;;;;5039015;28;20165;-79
2021/08/20 03:35:04;;;;;;;1999.90;999.90;;;17.10;99.90;;;;;;5056340;28;20403;-80
2021/08/20 03:37:29;;;;;;;1999.90;999.90;;;17.10;99.90;;;;;;5056590;28;20187;-79
2021/08/20 03:39:55;;;;;;;1999.90;999.90;;;17.10;99.90;;;;;;5059763;28;20399;-79
2021/08/20 03:42:21;;;;;;;1999.90;999.90;;;17.10;99.90;;;;;;5060343;28;20165;-79
2021/08/20 03:44:47;;;;;;;1999.90;999.90;;;17.10;99.90;;;;;;5059900;28;20172;-79
2021/08/20 03:47:12;;;;;;;1999.90;999.90;;;17.10;99.90;;;;;;5060580;28;20184;-80
2021/08/20 03:49:38;;;;;;;1999.90;999.90;;;17.10;99.90;;;;;;5060328;28;20215;-79
2021/08/20 03:52:04;;;;;;;1999.90;999.90;;;17.10;99.90;;;;;;5060591;28;20172;-80
2021/08/20 03:54:30;;;;;;;1999.90;999.90;;;17.10;99.90;;;;;;5060754;28;20160;-79
2021/08/20 03:56:55;;;;;;;1999.90;999.90;;;17.10;99.90;;;;;;5042291;28;20431;-80
2021/08/20 03:59:21;;;;;;;1999.90;999.90;;;17.10;99.90;;;;;;5059957;28;20172;-79
2021/08/20 04:01:47;;;;;;;1999.90;999.90;;;17.10;99.90;;;;;;5060049;28;20636;-80
2021/08/20 04:04:12;;;;;;;1999.90;999.90;;;17.10;99.90;;;;;;5060329;28;20214;-79
2021/08/20 04:06:39;;;;;;;1999.90;999.90;;;17.20;99.90;;;;;;5059906;28;20315;-79
2021/08/20 04:09:05;;;;;;;1999.90;999.90;;;17.20;99.90;;;;;;5059895;28;20693;-79
2021/08/20 04:11:31;;;;;;;1999.90;999.90;;;17.20;99.90;;;;;;5042151;28;20513;-80
2021/08/20 04:14:01;;;;;;;1999.90;999.90;;;17.10;99.90;;;;;;5060101;28;20402;-79
2021/08/20 04:16:27;;;;;;;1999.90;999.90;;;17.20;99.90;;;;;;5060098;28;20150;-79
2021/08/20 04:18:53;;;;;;;1999.90;999.90;;;17.20;99.90;;;;;;5059713;28;20399;-80
2021/08/20 04:21:19;;;;;;;1999.90;999.90;;;17.20;99.90;;;;;;5059450;28;20410;-79
2021/08/20 04:23:45;;;;;;;1999.90;999.90;;;17.20;99.90;;;;;;5059680;28;20164;-79
2021/08/20 04:26:11;;;;;;;1999.90;999.90;;;17.20;99.90;;;;;;5040895;28;20940;-79
2021/08/20 04:28:36;;;;;;;1999.90;999.90;;;17.20;99.90;;;;;;5059178;28;20410;-79
2021/08/20 04:31:02;;;;;;;1999.90;999.90;;;17.20;99.90;;;;;;5058830;28;20179;-79
2021/08/20 04:33:28;;;;;;;1999.90;999.90;;;17.20;99.90;;;;;;5058929;28;20169;-79
2021/08/20 04:35:53;;;;;;;1999.90;999.90;;;17.20;99.90;;;;;;5059196;28;20182;-79
2021/08/20 04:38:19;;;;;;;1999.90;999.90;;;17.20;99.90;;;;;;5058862;28;20181;-79
2021/08/20 04:40:45;;;;;;;1999.90;999.90;;;17.20;99.90;;;;;;5059163;28;20256;-79
2021/08/20 04:43:10;;;;;;;1999.90;999.90;;;17.20;99.90;;;;;;5058735;28;20161;-79
2021/08/20 04:45:36;;;;;;;1999.90;999.90;;;17.20;99.90;;;;;;5040962;28;20191;-79
2021/08/20 04:48:02;;;;;;;1999.90;999.90;;;17.20;99.90;;;;;;5040710;28;20207;-79
2021/08/20 04:50:29;;;;;;;1999.90;999.90;;;17.20;99.90;;;;;;5058072;28;20575;-79
2021/08/20 04:52:55;;;;;;;1999.90;999.90;;;17.20;99.90;;;;;;5058514;28;20166;-79
2021/08/20 04:55:21;;;;;;;1999.90;999.90;;;17.20;99.90;;;;;;5058793;28;20419;-79
2021/08/20 04:57:46;;;;;;;1999.90;999.90;;;17.20;99.90;;;;;;5058274;28;20458;-79
2021/08/20 05:00:12;;;;;;;1999.90;999.90;;;17.20;99.90;;;;;;5058311;28;20663;-79
2021/08/20 05:02:38;;;;;;;1999.90;999.90;;;17.30;99.90;;;;;;5058467;28;20200;-79
2021/08/20 05:05:08;;;;;;;1999.90;999.90;;;17.30;99.90;;;;;;5058490;28;20399;-79
2021/08/20 05:07:37;;;;;;;1999.90;999.90;;;17.30;99.90;;;;;;5057993;28;20241;-79
2021/08/20 05:10:09;;;;;;;1999.90;999.90;;;17.30;99.90;;;;;;5058442;28;20526;-80
2021/08/20 05:12:39;;;;;;;1999.90;999.90;;;17.40;99.90;;;;;;5058372;28;20415;-79
2021/08/20 05:15:06;;;;;;;1999.90;999.90;;;17.40;99.90;;;;;;5039853;28;20407;-80
2021/08/20 05:17:32;;;;;;;1999.90;999.90;;;17.40;99.90;;;;;;5057756;28;20430;-80
2021/08/20 05:19:58;;;;;;;1999.90;999.90;;;17.50;99.90;;;;;;5040442;28;20415;-80
2021/08/20 05:22:24;;;;;;;1999.90;999.90;;;17.60;99.90;;;;;;5040344;28;20198;-79
2021/08/20 05:24:49;;;;;;;1999.90;999.90;;;17.50;99.90;;;;;;5058004;28;20662;-79
2021/08/20 05:27:15;;;;;;;1999.90;999.90;;;17.60;99.90;;;;;;5058141;28;20431;-80
2021/08/20 05:29:41;;;;;;;1999.90;999.90;;;17.60;99.90;;;;;;5040179;28;20774;-80
2021/08/20 05:32:07;;;;;;;1999.90;999.90;;;17.60;99.90;;;;;;5058175;28;20708;-80
2021/08/20 05:34:32;;;;;;;1999.90;999.90;;;17.60;99.90;;;;;;5058239;28;20501;-77
2021/08/20 05:36:58;;;;;;;1999.90;999.90;;;17.60;99.90;;;;;;5058357;28;20431;-80
2021/08/20 05:39:25;;;;;;;1999.90;999.90;;;17.60;99.90;;;;;;5040167;28;20188;-80
2021/08/20 05:41:51;;;;;;;1999.90;999.90;;;17.50;99.90;;;;;;5058796;28;20303;-80
2021/08/20 05:44:17;;;;;;;1999.90;999.90;;;17.50;99.90;;;;;;5058062;28;20454;-80
2021/08/20 05:46:42;;;;;;;1999.90;999.90;;;17.50;99.90;;;;;;5058388;28;20937;-80
2021/08/20 05:49:08;;;;;;;1999.90;999.90;;;17.50;99.90;;;;;;5057743;28;20496;-80
2021/08/20 05:51:34;;;;;;;1999.90;999.90;;;17.60;99.90;;;;;;5058064;28;20640;-80
2021/08/20 05:54:00;;;;;;;1999.90;999.90;;;17.70;99.90;;;;;;5058241;28;20400;-80
2021/08/20 05:56:26;;;;;;;1999.90;999.90;;;17.70;99.90;;;;;;5123248;22;20482;-80
2021/08/20 05:58:52;;;;;;;1999.90;999.90;;;17.80;99.90;;;;;;5057283;28;20408;-80
2021/08/20 06:01:18;;;;;;;1999.90;999.90;;;17.80;99.90;;;;;;5038949;28;20196;-80
2021/08/20 06:03:44;;;;;;;1999.90;999.90;;;17.80;99.90;;;;;;5057415;28;20399;-80
2021/08/20 06:06:16;;;;;;;1999.90;999.90;;;17.70;99.90;;;;;;5057402;28;20405;-80
2021/08/20 06:08:42;;;;;;;1999.90;999.90;;;17.80;99.90;;;;;;5057217;28;20475;-80
2021/08/20 06:11:08;;;;;;;1999.90;999.90;;;17.90;99.90;;;;;;5057151;28;20414;-80
2021/08/20 06:13:34;;;;;;;1999.90;999.90;;;17.90;99.90;;;;;;5056352;28;20486;-80
2021/08/20 06:16:00;;;;;;;1999.90;999.90;;;18.00;99.90;;;;;;5038906;28;20232;-80
2021/08/20 06:18:26;;;;;;;1999.90;999.90;;;18.00;99.90;;;;;;5056643;28;20452;-80
2021/08/20 06:20:52;;;;;;;1999.90;999.90;;;18.10;99.90;;;;;;5038670;28;20640;-80
2021/08/20 06:23:17;;;;;;;1999.90;999.90;;;18.10;99.90;;;;;;5038728;28;20415;-80
2021/08/20 06:25:43;;;;;;;1999.90;999.90;;;18.20;99.90;;;;;;5056811;28;20620;-80
2021/08/20 06:28:09;;;;;;;1999.90;999.90;;;18.10;99.90;;;;;;5056432;28;20521;-80
2021/08/20 06:30:35;;;;;;;1999.90;999.90;;;18.20;99.90;;;;;;5057135;28;20196;-80
2021/08/20 06:33:00;;;;;;;1999.90;999.90;;;18.10;99.90;;;;;;5038867;28;20628;-80
2021/08/20 06:35:26;;;;;;;1999.90;999.90;;;18.10;99.90;;;;;;5039075;28;20283;-80
2021/08/20 06:37:51;;;;;;;1999.90;999.90;;;18.30;99.90;;;;;;5056543;28;20188;-80
2021/08/20 06:40:17;;;;;;;1999.90;999.90;;;18.30;99.90;;;;;;5056269;28;20646;-80
2021/08/20 06:42:43;;;;;;;1999.90;999.90;;;18.40;99.90;;;;;;5056248;28;20169;-80
2021/08/20 06:45:09;;;;;;;1999.90;999.90;;;18.40;99.90;;;;;;5056182;28;20168;-80
2021/08/20 06:47:34;;;;;;;1999.90;999.90;;;18.40;99.90;;;;;;5055968;28;20193;-80
2021/08/20 06:50:00;;;;;;;1999.90;999.90;;;18.50;99.90;;;;;;5038005;28;20454;-78
2021/08/20 06:52:26;;;;;;;1999.90;999.90;;;18.60;99.90;;;;;;5056805;28;20161;-80
2021/08/20 06:54:56;;;;;;;1999.90;999.90;;;18.50;99.90;;;;;;5056281;28;20226;-80
2021/08/20 06:57:22;;;;;;;1999.90;999.90;;;18.50;99.90;;;;;;5038518;28;20193;-80
2021/08/20 06:59:48;;;;;;;1999.90;999.90;;;18.60;99.90;;;;;;5056928;28;20853;-80
2021/08/20 07:02:13;;;;;;;1999.90;999.90;;;18.60;99.90;;;;;;5056483;28;20175;-80
2021/08/20 07:04:39;;;;;;;1999.90;999.90;;;18.70;99.90;;;;;;5056733;28;20169;-80
2021/08/20 07:07:05;;;;;;;1999.90;999.90;;;18.70;99.90;;;;;;5056523;28;20195;-80
2021/08/20 07:09:31;;;;;;;1999.90;999.90;;;18.80;99.90;;;;;;5056666;28;20205;-80
2021/08/20 07:11:56;;;;;;;1999.90;999.90;;;18.90;99.90;;;;;;5056763;28;20407;-80
2021/08/20 07:14:22;;;;;;;1999.90;999.90;;;18.90;99.90;;;;;;5056557;28;20683;-80
2021/08/20 07:16:48;;;;;;;1999.90;999.90;;;19.10;99.90;;;;;;5056877;28;20184;-80
2021/08/20 07:19:13;;;;;;;1999.90;999.90;;;19.00;99.90;;;;;;5039024;28;20628;-80
2021/08/20 07:21:39;;;;;;;1999.90;999.90;;;19.00;99.90;;;;;;5056779;28;20168;-80
2021/08/20 07:24:05;;;;;;;1999.90;999.90;;;19.00;99.90;;;;;;5056585;28;20171;-80
2021/08/20 07:26:30;;;;;;;1999.90;999.90;;;19.10;99.90;;;;;;5056720;28;20527;-80
2021/08/20 07:28:56;;;;;;;1999.90;999.90;;;19.20;99.90;;;;;;5055994;28;20188;-80
2021/08/20 07:31:22;;;;;;;1999.90;999.90;;;19.20;99.90;;;;;;5056619;28;20169;-80
2021/08/20 07:33:48;;;;;;;1999.90;999.90;;;19.20;99.90;;;;;;5056475;28;20161;-80
2021/08/20 07:36:13;;;;;;;1999.90;999.90;;;19.20;99.90;;;;;;5056781;28;20593;-80
2021/08/20 07:38:39;;;;;;;1999.90;999.90;;;19.30;99.90;;;;;;5038595;28;20164;-80
2021/08/20 07:41:04;;;;;;;1999.90;999.90;;;19.30;99.90;;;;;;5056465;28;20251;-80
2021/08/20 07:43:30;;;;;;;1999.90;999.90;;;19.40;99.90;;;;;;5056367;28;20177;-80
2021/08/20 07:45:56;;;;;;;1999.90;999.90;;;19.40;99.90;;;;;;5056212;28;20165;-80
2021/08/20 07:48:23;;;;;;;1999.90;999.90;;;19.40;99.90;;;;;;5055877;28;20646;-80
2021/08/20 07:50:48;;;;;;;1999.90;999.90;;;19.40;99.90;;;;;;5055758;28;20477;-80
2021/08/20 07:53:18;;;;;;;1999.90;999.90;;;19.30;99.90;;;;;;5056498;28;20755;-80
2021/08/20 07:55:44;;;;;;;1999.90;999.90;;;19.40;99.90;;;;;;5056213;28;20500;-80
2021/08/20 07:58:10;;;;;;;1999.90;999.90;;;19.50;99.90;;;;;;5056317;28;20424;-80
2021/08/20 08:00:36;;;;;;;1999.90;999.90;;;19.50;99.90;;;;;;5055810;28;20464;-80
2021/08/20 08:03:02;;;;;;;1999.90;999.90;;;19.50;99.90;;;;;;5056337;28;20891;-80
2021/08/20 08:05:28;;;;;;;1999.90;999.90;;;19.40;99.90;;;;;;5055982;28;20399;-80
2021/08/20 08:07:55;;;;;;;1999.90;999.90;;;19.50;99.90;;;;;;5055533;28;20258;-80
2021/08/20 08:10:21;;;;;;;1999.90;999.90;;;19.60;99.90;;;;;;5055520;28;20446;-80
2021/08/20 08:12:48;;;;;;;1999.90;999.90;;;19.70;99.90;;;;;;5055261;28;20775;-80
2021/08/20 08:15:14;;;;;;;1999.90;999.90;;;19.60;99.90;;;;;;5055841;28;20813;-80
2021/08/20 08:17:40;;;;;;;1999.90;999.90;;;19.80;99.90;;;;;;5055283;28;20426;-80
2021/08/20 08:20:09;;;;;;;1999.90;999.90;;;19.90;99.90;;;;;;5056185;28;20416;-80
2021/08/20 08:22:36;;;;;;;1999.90;999.90;;;20.00;99.90;;;;;;5037310;28;20179;-80
2021/08/20 08:25:03;;;;;;;1999.90;999.90;;;20.10;99.90;;;;;;5058229;28;20919;-79
2021/08/20 08:27:28;;;;;;;1999.90;999.90;;;20.20;99.90;;;;;;5041261;28;20883;-80
2021/08/20 08:29:54;;;;;;;1999.90;999.90;;;20.30;99.90;;;;;;5041726;28;20478;-80
2021/08/20 08:32:19;;;;;;;1999.90;999.90;;;20.30;99.90;;;;;;5041186;28;20173;-80
2021/08/20 08:34:45;;;;;;;1999.90;999.90;;;20.50;99.90;;;;;;5059104;28;20165;-80
2021/08/20 08:37:12;;;;;;;1999.90;999.90;;;20.60;99.90;;;;;;5040741;28;20537;-80
2021/08/20 08:39:38;;;;;;;1999.90;999.90;;;20.80;99.90;;;;;;5041155;28;20184;-80
2021/08/20 08:42:05;;;;;;;1999.90;999.90;;;20.90;99.90;;;;;;5058471;28;20411;-80
2021/08/20 08:44:31;;;;;;;1999.90;999.90;;;20.90;99.90;;;;;;5059417;28;20916;-80
2021/08/20 08:46:59;;;;;;;1999.90;999.90;;;20.90;99.90;;;;;;5058964;28;20847;-80
2021/08/20 08:49:26;;;;;;;1999.90;999.90;;;20.90;99.90;;;;;;5058983;28;20453;-80
2021/08/20 08:51:52;;;;;;;1999.90;999.90;;;20.90;99.90;;;;;;5041051;28;20422;-80
2021/08/20 08:54:18;;;;;;;1999.90;999.90;;;20.90;99.90;;;;;;5040631;28;20410;-80
2021/08/20 08:56:47;;;;;;;1999.90;999.90;;;20.90;99.90;;;;;;5040643;28;20208;-80
2021/08/20 08:59:14;;;;;;;1999.90;999.90;;;20.90;99.90;;;;;;5058683;28;20199;-80
2021/08/20 09:01:40;;;;;;;1999.90;999.90;;;20.70;99.90;;;;;;5040292;28;20419;-81
2021/08/20 09:04:14;;;;;;;1999.90;999.90;;;20.70;99.90;;;;;;5058780;28;20413;-81
2021/08/20 09:06:49;;;;;;;1999.90;999.90;;;20.70;99.90;;;;;;5058907;28;20520;-80
2021/08/20 09:09:17;;;;;;;1999.90;999.90;;;20.60;99.90;;;;;;5059059;28;20470;-80
2021/08/20 09:11:49;;;;;;;1999.90;999.90;;;20.40;99.90;;;;;;5058574;28;20933;-80
2021/08/20 09:14:17;;;;;;;1999.90;999.90;;;20.20;99.90;;;;;;5058473;28;20386;-80
2021/08/20 09:16:45;;;;;;;1999.90;999.90;;;20.00;99.90;;;;;;5060520;28;20453;-79
2021/08/20 09:19:21;;;;;;;1999.90;999.90;;;19.90;99.90;;;;;;5061154;28;20466;-80
2021/08/20 09:21:54;;;;;;;1999.90;999.90;;;19.90;99.90;;;;;;5058729;28;20391;-79
2021/08/20 09:24:36;;;;;;;1999.90;999.90;;;19.80;99.90;;;;;;5040569;28;20409;-80
2021/08/20 09:27:14;;;;;;;1999.90;999.90;;;19.70;99.90;;;;;;5058535;28;20423;-79
2021/08/20 09:30:06;;;;;;;1999.90;999.90;;;19.60;99.90;;;;;;5040332;28;20459;-80
2021/08/20 09:32:34;;;;;;;1999.90;999.90;;;19.50;99.90;;;;;;5058727;28;20400;-79
2021/08/20 09:34:59;;;;;;;1999.90;999.90;;;19.50;99.90;;;;;;5057551;28;20403;-79
2021/08/20 09:37:28;;;;;;;1999.90;999.90;;;19.60;99.90;;;;;;5058432;28;20426;-79
2021/08/20 09:40:00;;;;;;;1999.90;999.90;;;19.80;99.90;;;;;;5058424;28;20197;-80
2021/08/20 09:42:25;;;;;;;1999.90;999.90;;;19.80;99.90;;;;;;5059861;28;20394;-79
2021/08/20 09:45:13;;;;;;;1999.90;999.90;;;20.00;99.90;;;;;;5059812;28;20810;-78
2021/08/20 09:47:43;;;;;;;1999.90;999.90;;;20.10;99.90;;;;;;5039246;28;20190;-78
2021/08/20 09:50:09;;;;;;;1999.90;999.90;;;20.20;99.90;;;;;;5055374;28;20448;-78
2021/08/20 09:52:35;;;;;;;1999.90;999.90;;;20.00;99.90;;;;;;5055619;28;20815;-78
2021/08/20 09:55:00;;;;;;;1999.90;999.90;;;19.60;99.90;;;;;;5055687;28;20506;-77
2021/08/20 09:57:27;;;;;;;1999.90;999.90;;;19.50;99.90;;;;;;5055586;28;20686;-77
2021/08/20 09:59:57;;;;;;;1999.90;999.90;;;19.50;99.90;;;;;;5056031;28;20611;-77
2021/08/20 10:02:28;;;;;;;1999.90;999.90;;;19.80;99.90;;;;;;5037622;28;20427;-77
2021/08/20 10:04:58;;;;;;;1999.90;999.90;;;20.10;99.90;;;;;;5056183;28;20884;-77
2021/08/20 10:07:27;;;;;;;1999.90;999.90;;;20.30;99.90;;;;;;5055273;28;20534;-77
2021/08/20 10:09:59;;;;;;;1999.90;999.90;;;20.60;99.90;;;;;;5056599;28;20450;-77
2021/08/20 10:12:26;;;;;;;1999.90;999.90;;;20.80;99.90;;;;;;5056864;28;20400;-77
2021/08/20 10:14:53;;;;;;;1999.90;999.90;;;21.20;99.90;;;;;;5056148;28;20406;-77
2021/08/20 10:17:19;;;;;;;1999.90;999.90;;;21.20;99.90;;;;;;5056011;28;20423;-77
2021/08/20 10:19:48;;;;;;;1999.90;999.90;;;21.30;99.90;;;;;;5037597;28;20408;-77
2021/08/20 10:22:15;;;;;;;1999.90;999.90;;;21.50;99.90;;;;;;5054865;28;20980;-77
2021/08/20 10:24:40;;;;;;;1999.90;999.90;;;21.70;99.90;;;;;;5054635;28;20789;-77
2021/08/20 10:27:07;;;;;;;1999.90;999.90;;;21.90;99.90;;;;;;5054858;28;20438;-77
2021/08/20 10:29:47;;;;;;;1999.90;999.90;;;22.20;99.90;;;;;;5054560;28;20188;-77
2021/08/20 10:32:15;;;;;;;1999.90;999.90;;;22.40;99.90;;;;;;5054778;28;20533;-77
2021/08/20 10:34:42;;;;;;;1999.90;999.90;;;22.80;99.90;;;;;;5055219;28;20449;-78
2021/08/20 10:37:12;;;;;;;1999.90;999.90;;;22.90;99.90;;;;;;5057496;28;20447;-80
2021/08/20 10:39:40;;;;;;;1999.90;999.90;;;23.10;99.90;;;;;;5057991;28;20494;-79
2021/08/20 10:42:08;;;;;;;1999.90;999.90;;;22.90;99.90;;;;;;5057339;28;20902;-80
2021/08/20 10:44:39;;;;;;;1999.90;999.90;;;23.10;99.90;;;;;;5039118;28;20407;-79
2021/08/20 10:47:05;;;;;;;1999.90;999.90;;;23.00;99.90;;;;;;5056770;28;20469;-80
2021/08/20 10:49:39;;;;;;;1999.90;999.90;;;22.80;99.90;;;;;;5057493;28;20439;-80
2021/08/20 10:52:05;;;;;;;1999.90;999.90;;;22.70;99.90;;;;;;5039269;28;20406;-80
2021/08/20 10:54:30;;;;;;;1999.90;999.90;;;22.70;99.90;;;;;;5057364;28;20407;-80
2021/08/20 10:57:00;;;;;;;1999.90;999.90;;;22.40;99.90;;;;;;5057116;28;20790;-80
2021/08/20 10:59:43;;;;;;;1999.90;999.90;;;22.50;99.90;;;;;;5038385;28;20200;-79
2021/08/20 11:02:18;;;;;;;1999.90;999.90;;;22.40;99.90;;;;;;5057022;28;20414;-80
2021/08/20 11:05:08;;;;;;;1999.90;999.90;;;22.30;99.90;;;;;;5056807;28;20775;-80
2021/08/20 11:07:36;;;;;;;1999.90;999.90;;;22.10;99.90;;;;;;5057349;28;20462;-80
2021/08/20 11:10:08;;;;;;;1999.90;999.90;;;22.10;99.90;;;;;;5038559;28;20500;-80
2021/08/20 11:12:57;;;;;;;1999.90;999.90;;;22.20;99.90;;;;;;5056313;28;20501;-80
2021/08/20 11:15:23;;;;;;;1999.90;999.90;;;22.40;99.90;;;;;;5056256;28;20391;-80
2021/08/20 11:17:53;;;;;;;1999.90;999.90;;;22.80;99.90;;;;;;5056328;28;20885;-79
2021/08/20 11:20:24;;;;;;;1999.90;999.90;;;23.20;99.90;;;;;;5056928;28;20172;-80
2021/08/20 11:23:05;;;;;;;1999.90;999.90;;;23.40;99.90;;;;;;5056402;28;20387;-80
2021/08/20 11:25:53;;;;;;;1999.90;999.90;;;23.30;99.90;;;;;;5056068;28;20403;-80
2021/08/20 11:28:27;;;;;;;1999.90;999.90;;;23.20;99.90;;;;;;5057078;28;20431;-80
2021/08/20 11:31:03;;;;;;;1999.90;999.90;;;23.00;99.90;;;;;;5056817;28;20446;-80
2021/08/20 11:33:46;;;;;;;1999.90;999.90;;;23.10;99.90;;;;;;5056825;28;20797;-80
2021/08/20 11:36:18;;;;;;;1999.90;999.90;;;23.20;99.90;;;;;;5056505;28;20429;-80
2021/08/20 11:38:46;;;;;;;1999.90;999.90;;;23.10;99.90;;;;;;5056358;28;20411;-79
2021/08/20 11:44:06;;;;;;;1999.90;999.90;;;23.00;99.90;;;;;;5055949;28;20921;-80
2021/08/20 11:46:39;;;;;;;1999.90;999.90;;;22.70;99.90;;;;;;5038479;28;20941;-80
2021/08/20 11:49:07;;;;;;;1999.90;999.90;;;22.80;99.90;;;;;;5056119;28;20454;-80
2021/08/20 11:51:38;;;;;;;1999.90;999.90;;;23.20;99.90;;;;;;5056627;28;20414;-80
2021/08/20 11:54:08;;;;;;;1999.90;999.90;;;23.40;99.90;;;;;;5056097;28;20391;-80
2021/08/20 11:56:36;;;;;;;1999.90;999.90;;;23.70;99.90;;;;;;5128201;22;20486;-76
2021/08/20 11:59:11;;;;;;;1999.90;999.90;;;23.80;99.90;;;;;;5036141;28;20413;-76
2021/08/20 12:01:40;;;;;;;1999.90;999.90;;;23.90;99.90;;;;;;5056876;28;20743;-76